Time;durP1;ratioP1;P1;durP2;ratioP2;P2;SDS_P1;SDS_P2;PMS_P1;PMS_P2;Temp;Humidity;BMP_temperature;BMP_pressure;BME280_temperature;BME280_humidity;BME280_pressure;Samples;Min_cycle;Max_cycle;Signal;HPM_P1;HPM_P2
2021/09/17 00:31:15;;;;;;;12.83;11.60;;;;;;;24.46;45.77;94466.95;833883;71;32201;-76
2021/09/17 00:46:34;;;;;;;13.37;12.07;;;;;;;24.36;46.31;94455.61;809435;72;32409;-77
2021/09/17 01:01:09;;;;;;;13.60;12.13;;;;;;;24.33;46.52;94442.38;828165;71;29802;-76
2021/09/17 01:16:08;;;;;;;13.40;12.10;;;;;;;24.30;46.77;94427.03;828374;71;28819;-75
2021/09/17 02:02:00;;;;;;;12.43;10.97;;;;;;;24.21;46.86;94397.13;802073;69;32450;-76
2021/09/17 02:16:30;;;;;;;11.93;10.80;;;;;;;24.22;46.40;94388.50;829552;71;32374;-78
2021/09/17 02:31:32;;;;;;;13.03;11.73;;;;;;;24.14;46.48;94388.46;794745;74;32036;-76
2021/09/17 03:16:11;;;;;;;22.73;19.77;;;;;;;24.11;49.36;94371.80;828275;71;28658;-76
2021/09/17 04:01:08;;;;;;;17.77;15.90;;;;;;;23.94;48.27;94367.88;829957;71;29290;-77
2021/09/17 04:16:49;;;;;;;17.00;14.67;;;;;;;22.79;50.20;94356.95;787432;75;32436;-76
2021/09/17 04:31:40;;;;;;;17.27;15.27;;;;;;;22.21;52.02;94394.33;808908;72;31911;-76
2021/09/17 05:01:08;;;;;;;18.00;13.70;;;;;;;21.67;54.47;94376.28;828388;71;28794;-79
2021/09/17 05:32:00;;;;;;;18.67;15.60;;;;;;;21.59;55.71;94358.08;793862;72;31977;-80
2021/09/17 09:46:24;;;;;;;11.60;10.23;;;;;;;30.77;32.55;94193.55;828226;71;30937;-80
2021/09/17 10:01:36;;;;;;;13.63;9.20;;;;;;;29.60;33.82;94167.36;766835;76;33095;-78
2021/09/17 10:16:17;;;;;;;14.17;11.27;;;;;;;30.16;34.20;94170.63;827940;71;33445;-75
2021/09/17 10:31:14;;;;;;;15.05;9.40;;;;;;;29.75;34.33;94141.57;823599;71;27953;-76
2021/09/17 12:46:15;;;;;;;19.37;11.03;;;;;;;27.86;53.79;94024.28;827288;71;32672;-78
2021/09/17 13:01:08;;;;;;;21.43;8.73;;;;;;;;;;827988;71;29883;-75
2021/09/17 13:16:13;;;;;;;16.13;8.20;;;;;;;;;;827237;71;32789;-78
2021/09/17 13:46:27;;;;;;;20.67;9.43;;;;;;;25.35;66.38;94053.33;827459;71;32716;-77
2021/09/17 16:46:50;;;;;;;20.43;11.63;;;;;;;25.24;63.52;93978.76;828441;71;27010;-77
2021/09/17 17:01:15;;;;;;;20.10;12.20;;;;;;;25.23;62.93;93982.03;827828;71;33258;-77
2021/09/17 17:16:50;;;;;;;21.33;11.80;;;;;;;25.15;63.06;93977.25;823525;70;33156;-78
2021/09/17 17:31:09;;;;;;;20.47;13.63;;;;;;;25.14;63.08;94001.25;828808;71;30773;-77
2021/09/17 17:46:14;;;;;;;22.53;16.03;;;;;;;24.90;66.06;94000.23;834266;71;32700;-76
2021/09/17 18:01:49;;;;;;;32.53;17.60;;;;;;;25.23;63.83;94007.55;828336;71;27043;-77
2021/09/17 18:16:09;;;;;;;27.80;14.33;;;;;;;25.33;62.36;94014.02;828215;71;29685;-77
2021/09/17 18:31:14;;;;;;;21.40;13.37;;;;;;;25.21;61.94;94007.73;827589;71;33223;-76
2021/09/17 18:46:33;;;;;;;21.63;16.13;;;;;;;24.19;62.57;94020.77;809993;72;32914;-79
2021/09/17 19:16:43;;;;;;;35.50;27.90;;;;;;;24.88;56.78;94029.38;828434;71;27614;-77
2021/09/17 19:31:16;;;;;;;24.03;12.83;;;;;;;25.08;55.43;94031.02;828446;71;32717;-76
2021/09/17 19:46:14;;;;;;;19.70;15.20;;;;;;;23.33;62.17;94033.37;834040;71;32698;-77
2021/09/17 20:01:24;;;;;;;22.23;15.20;;;;;;;22.97;63.86;94041.30;833890;71;32876;-77
2021/09/17 20:16:09;;;;;;;20.77;14.03;;;;;;;22.17;65.52;94018.76;833235;71;29710;-77
2021/09/17 20:31:08;;;;;;;20.43;12.33;;;;;;;22.57;65.31;94023.77;828151;71;30543;-75
2021/09/17 20:46:08;;;;;;;16.07;11.40;;;;;;;23.51;60.22;94016.00;833945;71;29708;-75
2021/09/17 21:16:08;;;;;;;14.87;8.10;;;;;;;23.94;54.99;94064.25;828390;71;29731;-75
2021/09/17 21:31:08;;;;;;;16.77;9.60;;;;;;;24.14;55.93;94064.04;828115;71;30407;-75
2021/09/17 21:46:14;;;;;;;14.47;9.43;;;;;;;24.23;56.22;94077.07;827392;71;32706;-77
2021/09/17 22:01:18;;;;;;;10.73;6.83;;;;;;;24.22;53.90;94070.75;827506;71;33230;-76
2021/09/17 22:16:15;;;;;;;11.07;6.73;;;;;;;24.25;53.43;94064.59;827541;71;32744;-75
2021/09/17 22:31:19;;;;;;;11.30;7.00;;;;;;;24.25;53.47;94064.05;827484;71;32709;-76
2021/09/17 22:46:14;;;;;;;14.87;9.83;;;;;;;24.23;53.63;94052.94;827684;71;33213;-75
2021/09/17 23:01:08;;;;;;;17.00;8.63;;;;;;;24.24;53.86;94044.31;828482;71;30215;-75
2021/09/17 23:16:08;;;;;;;10.40;7.20;;;;;;;24.23;53.84;94029.36;828371;71;29816;-74
2021/09/17 23:31:48;;;;;;;14.40;7.30;;;;;;;24.15;54.20;94032.66;834039;71;30327;-76
2021/09/17 23:46:15;;;;;;;12.43;6.63;;;;;;;24.14;54.09;94030.52;834013;71;33253;-74
